Northdale, Florida
Current Conditions -  °F | °C
As of 3:53 AM on Friday 24 Oct 2014 (Local Time) from KTPA Reporting Station
Clear Clear  
Wind Chill: 63°   Ceiling: Unl
Heat Index: 63°   Visibility: 10mi
Dew Point: 55°   Wind: 6mph
Humidity: 75%   Direction: 60°ENE
Pressure: 29.96"   Gusts: NA
Location:  28.0595°N, 82.6106°W
Report Text: KTPA 240753Z 06005KT 10SM CLR 17/13 A2996 RMK AO2 SLP145 T01720128
Loading
Personal Weather Stations






























Interactive Weather Map
Tropical Storm Tracking
New forecast layout! Learn more

10-Day Weather Forecast

Advertisements
Track Severe Weather on mobile